sensor_id;sensor_type;location;lat;lon;timestamp;P1;durP1;ratioP1;P2;durP2;ratioP2
2674;SDS011;1347;42.122;24.746;2023-04-03T00:00:29;3.60;;;2.23;;
2674;SDS011;1347;42.122;24.746;2023-04-03T00:02:56;2.33;;;2.00;;
2674;SDS011;1347;42.122;24.746;2023-04-03T00:05:23;4.60;;;1.97;;
2674;SDS011;1347;42.122;24.746;2023-04-03T00:07:50;5.27;;;2.37;;
2674;SDS011;1347;42.122;24.746;2023-04-03T00:10:17;1.67;;;1.40;;
2674;SDS011;1347;42.122;24.746;2023-04-03T00:12:44;2.60;;;1.90;;
2674;SDS011;1347;42.122;24.746;2023-04-03T00:15:12;2.40;;;2.00;;
2674;SDS011;1347;42.122;24.746;2023-04-03T00:17:39;3.30;;;2.80;;
2674;SDS011;1347;42.122;24.746;2023-04-03T00:20:07;3.30;;;2.30;;
2674;SDS011;1347;42.122;24.746;2023-04-03T00:22:34;3.37;;;2.40;;
2674;SDS011;1347;42.122;24.746;2023-04-03T00:25:01;2.63;;;1.60;;
2674;SDS011;1347;42.122;24.746;2023-04-03T00:27:28;2.23;;;2.03;;
2674;SDS011;1347;42.122;24.746;2023-04-03T00:29:55;2.63;;;1.90;;
2674;SDS011;1347;42.122;24.746;2023-04-03T00:32:23;2.70;;;2.20;;
2674;SDS011;1347;42.122;24.746;2023-04-03T00:34:50;2.30;;;1.77;;
2674;SDS011;1347;42.122;24.746;2023-04-03T00:37:17;2.53;;;1.90;;
2674;SDS011;1347;42.122;24.746;2023-04-03T00:39:44;2.17;;;1.97;;
2674;SDS011;1347;42.122;24.746;2023-04-03T00:42:11;5.10;;;2.07;;
2674;SDS011;1347;42.122;24.746;2023-04-03T00:47:45;2.97;;;2.00;;
2674;SDS011;1347;42.122;24.746;2023-04-03T00:50:12;3.60;;;2.20;;
2674;SDS011;1347;42.122;24.746;2023-04-03T00:52:39;2.70;;;1.83;;
2674;SDS011;1347;42.122;24.746;2023-04-03T00:55:07;4.87;;;1.97;;
2674;SDS011;1347;42.122;24.746;2023-04-03T00:57:36;4.53;;;2.30;;
2674;SDS011;1347;42.122;24.746;2023-04-03T01:00:05;5.00;;;2.77;;
2674;SDS011;1347;42.122;24.746;2023-04-03T01:02:35;3.53;;;2.43;;
2674;SDS011;1347;42.122;24.746;2023-04-03T01:05:04;4.00;;;2.57;;
2674;SDS011;1347;42.122;24.746;2023-04-03T01:07:31;6.87;;;3.00;;
2674;SDS011;1347;42.122;24.746;2023-04-03T01:10:03;6.30;;;2.03;;
2674;SDS011;1347;42.122;24.746;2023-04-03T01:12:33;6.40;;;2.13;;
2674;SDS011;1347;42.122;24.746;2023-04-03T01:15:02;4.10;;;2.50;;
2674;SDS011;1347;42.122;24.746;2023-04-03T01:17:31;3.10;;;2.40;;
2674;SDS011;1347;42.122;24.746;2023-04-03T01:23:14;4.13;;;2.10;;
2674;SDS011;1347;42.122;24.746;2023-04-03T01:25:52;3.83;;;2.60;;
2674;SDS011;1347;42.122;24.746;2023-04-03T01:28:23;2.90;;;1.90;;
2674;SDS011;1347;42.122;24.746;2023-04-03T01:30:53;2.23;;;2.03;;
2674;SDS011;1347;42.122;24.746;2023-04-03T01:33:29;5.20;;;2.10;;
2674;SDS011;1347;42.122;24.746;2023-04-03T01:35:57;2.40;;;2.10;;
2674;SDS011;1347;42.122;24.746;2023-04-03T01:38:24;4.67;;;2.27;;
2674;SDS011;1347;42.122;24.746;2023-04-03T01:40:50;5.27;;;2.10;;
2674;SDS011;1347;42.122;24.746;2023-04-03T01:43:17;3.53;;;2.20;;
2674;SDS011;1347;42.122;24.746;2023-04-03T01:45:44;3.20;;;2.30;;
2674;SDS011;1347;42.122;24.746;2023-04-03T01:48:11;3.60;;;2.23;;
2674;SDS011;1347;42.122;24.746;2023-04-03T01:50:40;3.37;;;2.50;;
2674;SDS011;1347;42.122;24.746;2023-04-03T01:53:07;7.30;;;2.20;;
2674;SDS011;1347;42.122;24.746;2023-04-03T01:55:34;2.53;;;2.10;;
2674;SDS011;1347;42.122;24.746;2023-04-03T01:58:01;3.30;;;1.90;;
2674;SDS011;1347;42.122;24.746;2023-04-03T02:00:28;2.77;;;2.30;;
2674;SDS011;1347;42.122;24.746;2023-04-03T02:02:55;3.07;;;2.33;;
2674;SDS011;1347;42.122;24.746;2023-04-03T02:05:22;4.10;;;2.60;;
2674;SDS011;1347;42.122;24.746;2023-04-03T02:07:51;4.23;;;3.20;;
2674;SDS011;1347;42.122;24.746;2023-04-03T02:10:18;4.57;;;3.13;;
2674;SDS011;1347;42.122;24.746;2023-04-03T02:12:45;4.40;;;4.00;;
2674;SDS011;1347;42.122;24.746;2023-04-03T02:15:12;4.37;;;3.97;;
2674;SDS011;1347;42.122;24.746;2023-04-03T02:17:38;4.40;;;2.80;;
2674;SDS011;1347;42.122;24.746;2023-04-03T02:20:06;9.10;;;3.23;;
2674;SDS011;1347;42.122;24.746;2023-04-03T02:22:34;4.90;;;3.10;;
2674;SDS011;1347;42.122;24.746;2023-04-03T02:25:02;5.87;;;3.97;;
2674;SDS011;1347;42.122;24.746;2023-04-03T02:27:29;5.20;;;2.67;;
2674;SDS011;1347;42.122;24.746;2023-04-03T02:29:57;3.67;;;2.57;;
2674;SDS011;1347;42.122;24.746;2023-04-03T02:32:23;4.00;;;3.00;;
2674;SDS011;1347;42.122;24.746;2023-04-03T02:34:50;5.60;;;3.10;;
2674;SDS011;1347;42.122;24.746;2023-04-03T02:37:17;4.10;;;3.70;;
2674;SDS011;1347;42.122;24.746;2023-04-03T02:39:44;4.90;;;4.10;;
2674;SDS011;1347;42.122;24.746;2023-04-03T02:42:12;4.90;;;3.50;;
2674;SDS011;1347;42.122;24.746;2023-04-03T02:44:39;5.17;;;3.13;;
2674;SDS011;1347;42.122;24.746;2023-04-03T02:47:06;5.73;;;3.50;;
2674;SDS011;1347;42.122;24.746;2023-04-03T02:49:33;5.23;;;3.50;;
2674;SDS011;1347;42.122;24.746;2023-04-03T02:52:00;5.10;;;3.40;;
2674;SDS011;1347;42.122;24.746;2023-04-03T02:54:27;25.40;;;15.33;;
2674;SDS011;1347;42.122;24.746;2023-04-03T02:56:55;27.90;;;17.80;;
2674;SDS011;1347;42.122;24.746;2023-04-03T02:59:24;25.43;;;17.03;;
2674;SDS011;1347;42.122;24.746;2023-04-03T03:01:51;25.37;;;20.37;;
2674;SDS011;1347;42.122;24.746;2023-04-03T03:04:18;28.47;;;19.93;;
2674;SDS011;1347;42.122;24.746;2023-04-03T03:06:45;21.60;;;16.00;;
2674;SDS011;1347;42.122;24.746;2023-04-03T03:09:12;16.63;;;12.07;;
2674;SDS011;1347;42.122;24.746;2023-04-03T03:11:39;15.23;;;11.17;;
2674;SDS011;1347;42.122;24.746;2023-04-03T03:14:06;15.00;;;9.50;;
2674;SDS011;1347;42.122;24.746;2023-04-03T03:16:35;11.40;;;8.83;;
2674;SDS011;1347;42.122;24.746;2023-04-03T03:19:01;8.93;;;7.37;;
2674;SDS011;1347;42.122;24.746;2023-04-03T03:21:29;11.07;;;6.80;;
2674;SDS011;1347;42.122;24.746;2023-04-03T03:23:55;11.97;;;7.50;;
2674;SDS011;1347;42.122;24.746;2023-04-03T03:26:22;9.13;;;7.13;;
2674;SDS011;1347;42.122;24.746;2023-04-03T03:28:50;10.70;;;7.63;;
2674;SDS011;1347;42.122;24.746;2023-04-03T03:31:17;11.27;;;7.80;;
2674;SDS011;1347;42.122;24.746;2023-04-03T03:33:45;14.07;;;5.80;;
2674;SDS011;1347;42.122;24.746;2023-04-03T03:36:12;10.27;;;6.17;;
2674;SDS011;1347;42.122;24.746;2023-04-03T03:38:39;7.03;;;5.13;;
2674;SDS011;1347;42.122;24.746;2023-04-03T03:41:05;13.30;;;9.70;;
2674;SDS011;1347;42.122;24.746;2023-04-03T03:43:32;9.97;;;7.37;;
2674;SDS011;1347;42.122;24.746;2023-04-03T03:45:59;6.87;;;5.67;;
2674;SDS011;1347;42.122;24.746;2023-04-03T03:48:26;10.60;;;7.43;;
2674;SDS011;1347;42.122;24.746;2023-04-03T03:50:54;8.90;;;8.00;;
2674;SDS011;1347;42.122;24.746;2023-04-03T03:53:21;10.77;;;6.90;;
2674;SDS011;1347;42.122;24.746;2023-04-03T03:55:48;9.43;;;7.70;;
2674;SDS011;1347;42.122;24.746;2023-04-03T03:58:15;10.80;;;6.10;;
2674;SDS011;1347;42.122;24.746;2023-04-03T04:00:42;7.33;;;5.57;;
2674;SDS011;1347;42.122;24.746;2023-04-03T04:03:09;12.20;;;6.60;;
2674;SDS011;1347;42.122;24.746;2023-04-03T04:05:36;10.37;;;5.10;;
2674;SDS011;1347;42.122;24.746;2023-04-03T04:08:04;10.90;;;6.47;;
2674;SDS011;1347;42.122;24.746;2023-04-03T04:10:31;8.33;;;6.47;;
2674;SDS011;1347;42.122;24.746;2023-04-03T04:12:58;10.80;;;6.20;;
2674;SDS011;1347;42.122;24.746;2023-04-03T04:15:25;6.70;;;5.63;;
2674;SDS011;1347;42.122;24.746;2023-04-03T04:17:52;9.23;;;6.17;;
2674;SDS011;1347;42.122;24.746;2023-04-03T04:20:19;7.27;;;5.80;;
2674;SDS011;1347;42.122;24.746;2023-04-03T04:22:46;9.40;;;5.73;;
2674;SDS011;1347;42.122;24.746;2023-04-03T04:25:14;8.97;;;5.50;;
2674;SDS011;1347;42.122;24.746;2023-04-03T04:27:41;8.27;;;6.00;;
2674;SDS011;1347;42.122;24.746;2023-04-03T04:30:08;13.40;;;7.50;;
2674;SDS011;1347;42.122;24.746;2023-04-03T04:32:37;8.50;;;6.40;;
2674;SDS011;1347;42.122;24.746;2023-04-03T04:35:04;11.77;;;6.60;;
2674;SDS011;1347;42.122;24.746;2023-04-03T04:37:31;16.20;;;9.37;;
2674;SDS011;1347;42.122;24.746;2023-04-03T04:39:58;22.83;;;8.33;;
2674;SDS011;1347;42.122;24.746;2023-04-03T04:42:27;24.57;;;8.50;;
2674;SDS011;1347;42.122;24.746;2023-04-03T04:44:53;16.63;;;8.70;;
2674;SDS011;1347;42.122;24.746;2023-04-03T04:47:20;26.20;;;8.20;;
2674;SDS011;1347;42.122;24.746;2023-04-03T04:49:47;9.07;;;7.87;;
2674;SDS011;1347;42.122;24.746;2023-04-03T04:52:14;13.57;;;8.43;;
2674;SDS011;1347;42.122;24.746;2023-04-03T04:54:41;21.90;;;11.57;;
2674;SDS011;1347;42.122;24.746;2023-04-03T04:57:08;20.40;;;10.00;;
2674;SDS011;1347;42.122;24.746;2023-04-03T04:59:37;22.97;;;9.13;;
2674;SDS011;1347;42.122;24.746;2023-04-03T05:02:04;26.87;;;9.17;;
2674;SDS011;1347;42.122;24.746;2023-04-03T05:04:31;30.07;;;10.33;;
2674;SDS011;1347;42.122;24.746;2023-04-03T05:06:58;23.53;;;11.30;;
2674;SDS011;1347;42.122;24.746;2023-04-03T05:09:25;18.70;;;11.47;;
2674;SDS011;1347;42.122;24.746;2023-04-03T05:11:52;30.50;;;10.17;;
2674;SDS011;1347;42.122;24.746;2023-04-03T05:14:19;18.30;;;10.17;;
2674;SDS011;1347;42.122;24.746;2023-04-03T05:16:48;29.60;;;10.30;;
2674;SDS011;1347;42.122;24.746;2023-04-03T05:19:18;25.53;;;11.40;;
2674;SDS011;1347;42.122;24.746;2023-04-03T05:21:45;18.73;;;10.93;;
2674;SDS011;1347;42.122;24.746;2023-04-03T05:24:12;17.60;;;10.50;;
2674;SDS011;1347;42.122;24.746;2023-04-03T05:26:39;16.63;;;8.53;;
2674;SDS011;1347;42.122;24.746;2023-04-03T05:29:06;26.73;;;9.20;;
2674;SDS011;1347;42.122;24.746;2023-04-03T05:31:33;16.67;;;8.03;;
2674;SDS011;1347;42.122;24.746;2023-04-03T05:34:02;17.43;;;10.00;;
2674;SDS011;1347;42.122;24.746;2023-04-03T05:36:29;15.80;;;8.80;;
2674;SDS011;1347;42.122;24.746;2023-04-03T05:38:56;13.37;;;9.00;;
2674;SDS011;1347;42.122;24.746;2023-04-03T05:41:22;17.60;;;9.60;;
2674;SDS011;1347;42.122;24.746;2023-04-03T05:43:50;14.57;;;9.97;;
2674;SDS011;1347;42.122;24.746;2023-04-03T05:46:17;20.40;;;9.63;;
2674;SDS011;1347;42.122;24.746;2023-04-03T05:48:47;21.30;;;9.03;;
2674;SDS011;1347;42.122;24.746;2023-04-03T05:51:16;22.17;;;11.90;;
2674;SDS011;1347;42.122;24.746;2023-04-03T05:53:44;17.83;;;10.30;;
2674;SDS011;1347;42.122;24.746;2023-04-03T05:56:13;25.80;;;11.77;;
2674;SDS011;1347;42.122;24.746;2023-04-03T05:58:40;12.17;;;10.43;;
2674;SDS011;1347;42.122;24.746;2023-04-03T06:01:07;24.37;;;13.10;;
2674;SDS011;1347;42.122;24.746;2023-04-03T06:03:34;16.67;;;12.30;;
2674;SDS011;1347;42.122;24.746;2023-04-03T06:06:02;23.63;;;13.50;;
2674;SDS011;1347;42.122;24.746;2023-04-03T06:08:32;19.40;;;13.57;;
2674;SDS011;1347;42.122;24.746;2023-04-03T06:11:00;28.20;;;14.37;;
2674;SDS011;1347;42.122;24.746;2023-04-03T06:13:28;28.30;;;14.83;;
2674;SDS011;1347;42.122;24.746;2023-04-03T06:15:55;20.93;;;14.00;;
2674;SDS011;1347;42.122;24.746;2023-04-03T06:18:23;25.20;;;14.53;;
2674;SDS011;1347;42.122;24.746;2023-04-03T06:20:50;15.07;;;10.50;;
2674;SDS011;1347;42.122;24.746;2023-04-03T06:23:17;16.17;;;11.60;;
2674;SDS011;1347;42.122;24.746;2023-04-03T06:25:46;23.27;;;12.00;;
2674;SDS011;1347;42.122;24.746;2023-04-03T06:28:13;18.40;;;10.57;;
2674;SDS011;1347;42.122;24.746;2023-04-03T06:30:40;17.63;;;8.60;;
2674;SDS011;1347;42.122;24.746;2023-04-03T06:33:07;13.27;;;7.30;;
2674;SDS011;1347;42.122;24.746;2023-04-03T06:35:33;12.23;;;5.60;;
2674;SDS011;1347;42.122;24.746;2023-04-03T06:38:01;11.23;;;7.23;;
2674;SDS011;1347;42.122;24.746;2023-04-03T06:40:32;8.67;;;5.90;;
2674;SDS011;1347;42.122;24.746;2023-04-03T06:43:01;10.63;;;6.00;;
2674;SDS011;1347;42.122;24.746;2023-04-03T06:45:28;9.53;;;6.13;;
2674;SDS011;1347;42.122;24.746;2023-04-03T06:47:54;12.60;;;5.50;;
2674;SDS011;1347;42.122;24.746;2023-04-03T06:50:21;12.27;;;5.10;;
2674;SDS011;1347;42.122;24.746;2023-04-03T06:52:48;21.53;;;6.20;;
2674;SDS011;1347;42.122;24.746;2023-04-03T06:55:15;9.00;;;5.03;;
2674;SDS011;1347;42.122;24.746;2023-04-03T06:57:42;9.30;;;6.07;;
2674;SDS011;1347;42.122;24.746;2023-04-03T07:00:11;9.57;;;6.80;;
2674;SDS011;1347;42.122;24.746;2023-04-03T07:02:39;11.57;;;6.83;;
2674;SDS011;1347;42.122;24.746;2023-04-03T07:05:07;13.63;;;6.30;;
2674;SDS011;1347;42.122;24.746;2023-04-03T07:07:34;8.87;;;6.30;;
2674;SDS011;1347;42.122;24.746;2023-04-03T07:10:03;9.87;;;6.20;;
2674;SDS011;1347;42.122;24.746;2023-04-03T07:12:30;7.40;;;6.00;;
2674;SDS011;1347;42.122;24.746;2023-04-03T07:14:57;10.60;;;6.43;;
2674;SDS011;1347;42.122;24.746;2023-04-03T07:17:26;15.70;;;7.30;;
2674;SDS011;1347;42.122;24.746;2023-04-03T07:19:52;6.67;;;5.97;;
2674;SDS011;1347;42.122;24.746;2023-04-03T07:22:20;13.87;;;5.67;;
2674;SDS011;1347;42.122;24.746;2023-04-03T07:24:46;12.80;;;6.20;;
2674;SDS011;1347;42.122;24.746;2023-04-03T07:27:13;10.50;;;5.33;;
2674;SDS011;1347;42.122;24.746;2023-04-03T07:29:40;9.57;;;5.80;;
2674;SDS011;1347;42.122;24.746;2023-04-03T07:32:07;7.80;;;5.47;;
2674;SDS011;1347;42.122;24.746;2023-04-03T07:34:36;13.00;;;6.90;;
2674;SDS011;1347;42.122;24.746;2023-04-03T07:37:03;7.07;;;5.30;;
2674;SDS011;1347;42.122;24.746;2023-04-03T07:39:31;9.67;;;5.70;;
2674;SDS011;1347;42.122;24.746;2023-04-03T07:41:58;7.10;;;4.90;;
2674;SDS011;1347;42.122;24.746;2023-04-03T07:44:25;7.33;;;5.00;;
2674;SDS011;1347;42.122;24.746;2023-04-03T07:46:52;7.87;;;4.77;;
2674;SDS011;1347;42.122;24.746;2023-04-03T07:49:20;8.77;;;5.33;;
2674;SDS011;1347;42.122;24.746;2023-04-03T07:51:50;13.80;;;6.03;;
2674;SDS011;1347;42.122;24.746;2023-04-03T07:54:18;6.83;;;5.20;;
2674;SDS011;1347;42.122;24.746;2023-04-03T07:56:45;5.20;;;4.53;;
2674;SDS011;1347;42.122;24.746;2023-04-03T07:59:12;10.17;;;4.73;;
2674;SDS011;1347;42.122;24.746;2023-04-03T08:01:39;9.43;;;4.73;;
2674;SDS011;1347;42.122;24.746;2023-04-03T08:04:05;6.83;;;5.23;;
2674;SDS011;1347;42.122;24.746;2023-04-03T08:06:32;10.10;;;4.77;;
2674;SDS011;1347;42.122;24.746;2023-04-03T08:09:03;8.07;;;4.03;;
2674;SDS011;1347;42.122;24.746;2023-04-03T08:11:30;6.63;;;5.20;;
2674;SDS011;1347;42.122;24.746;2023-04-03T08:13:57;6.00;;;5.40;;
2674;SDS011;1347;42.122;24.746;2023-04-03T08:16:25;5.77;;;5.00;;
2674;SDS011;1347;42.122;24.746;2023-04-03T08:18:52;7.17;;;4.70;;
2674;SDS011;1347;42.122;24.746;2023-04-03T08:21:20;12.77;;;5.30;;
2674;SDS011;1347;42.122;24.746;2023-04-03T08:23:47;10.50;;;5.50;;
2674;SDS011;1347;42.122;24.746;2023-04-03T08:26:18;8.93;;;5.43;;
2674;SDS011;1347;42.122;24.746;2023-04-03T08:28:47;12.73;;;7.17;;
2674;SDS011;1347;42.122;24.746;2023-04-03T08:31:15;11.03;;;9.60;;
2674;SDS011;1347;42.122;24.746;2023-04-03T08:33:44;14.40;;;9.27;;
2674;SDS011;1347;42.122;24.746;2023-04-03T08:36:16;12.83;;;8.27;;
2674;SDS011;1347;42.122;24.746;2023-04-03T08:38:45;10.57;;;8.97;;
2674;SDS011;1347;42.122;24.746;2023-04-03T08:41:14;18.57;;;7.90;;
2674;SDS011;1347;42.122;24.746;2023-04-03T08:43:52;8.63;;;7.33;;
2674;SDS011;1347;42.122;24.746;2023-04-03T08:46:27;7.83;;;7.10;;
2674;SDS011;1347;42.122;24.746;2023-04-03T08:49:07;12.27;;;7.80;;
2674;SDS011;1347;42.122;24.746;2023-04-03T08:51:39;11.00;;;6.70;;
2674;SDS011;1347;42.122;24.746;2023-04-03T08:54:15;10.83;;;6.50;;
2674;SDS011;1347;42.122;24.746;2023-04-03T08:56:49;8.50;;;6.00;;
2674;SDS011;1347;42.122;24.746;2023-04-03T08:59:19;10.70;;;6.17;;
2674;SDS011;1347;42.122;24.746;2023-04-03T09:01:52;7.00;;;6.30;;
2674;SDS011;1347;42.122;24.746;2023-04-03T09:04:20;6.87;;;5.43;;
2674;SDS011;1347;42.122;24.746;2023-04-03T09:06:49;6.07;;;5.57;;
2674;SDS011;1347;42.122;24.746;2023-04-03T09:09:24;11.07;;;6.30;;
2674;SDS011;1347;42.122;24.746;2023-04-03T09:12:00;6.83;;;5.53;;
2674;SDS011;1347;42.122;24.746;2023-04-03T09:14:38;7.43;;;5.43;;
2674;SDS011;1347;42.122;24.746;2023-04-03T09:17:12;10.57;;;6.07;;
2674;SDS011;1347;42.122;24.746;2023-04-03T09:19:48;8.57;;;6.87;;
2674;SDS011;1347;42.122;24.746;2023-04-03T09:22:21;8.63;;;6.10;;
2674;SDS011;1347;42.122;24.746;2023-04-03T09:24:54;13.90;;;6.20;;
2674;SDS011;1347;42.122;24.746;2023-04-03T09:27:25;8.53;;;5.70;;
2674;SDS011;1347;42.122;24.746;2023-04-03T09:29:54;6.53;;;5.00;;
2674;SDS011;1347;42.122;24.746;2023-04-03T09:32:25;7.70;;;4.77;;
2674;SDS011;1347;42.122;24.746;2023-04-03T09:34:55;6.93;;;4.97;;
2674;SDS011;1347;42.122;24.746;2023-04-03T09:37:36;7.20;;;3.87;;
2674;SDS011;1347;42.122;24.746;2023-04-03T09:40:05;8.80;;;4.83;;
2674;SDS011;1347;42.122;24.746;2023-04-03T09:42:54;7.30;;;5.13;;
2674;SDS011;1347;42.122;24.746;2023-04-03T09:45:25;7.33;;;3.90;;
2674;SDS011;1347;42.122;24.746;2023-04-03T09:48:04;5.57;;;4.27;;
2674;SDS011;1347;42.122;24.746;2023-04-03T09:50:52;5.90;;;4.63;;
2674;SDS011;1347;42.122;24.746;2023-04-03T09:53:31;12.07;;;4.67;;
2674;SDS011;1347;42.122;24.746;2023-04-03T09:56:18;6.70;;;4.83;;
2674;SDS011;1347;42.122;24.746;2023-04-03T09:58:48;6.13;;;5.40;;
2674;SDS011;1347;42.122;24.746;2023-04-03T10:01:25;6.20;;;4.83;;
2674;SDS011;1347;42.122;24.746;2023-04-03T10:07:35;5.30;;;3.37;;
2674;SDS011;1347;42.122;24.746;2023-04-03T10:10:15;5.30;;;3.67;;
2674;SDS011;1347;42.122;24.746;2023-04-03T10:12:45;4.47;;;4.00;;
2674;SDS011;1347;42.122;24.746;2023-04-03T10:15:12;6.10;;;4.17;;
2674;SDS011;1347;42.122;24.746;2023-04-03T10:17:46;5.20;;;4.70;;
2674;SDS011;1347;42.122;24.746;2023-04-03T10:20:32;5.37;;;4.20;;
2674;SDS011;1347;42.122;24.746;2023-04-03T10:23:15;5.17;;;4.20;;
2674;SDS011;1347;42.122;24.746;2023-04-03T10:25:48;5.10;;;4.60;;
2674;SDS011;1347;42.122;24.746;2023-04-03T10:28:24;5.23;;;4.20;;
2674;SDS011;1347;42.122;24.746;2023-04-03T10:30:58;7.27;;;4.20;;
2674;SDS011;1347;42.122;24.746;2023-04-03T10:33:36;5.37;;;4.87;;
2674;SDS011;1347;42.122;24.746;2023-04-03T10:36:14;5.33;;;4.83;;
2674;SDS011;1347;42.122;24.746;2023-04-03T10:38:52;5.90;;;5.30;;
2674;SDS011;1347;42.122;24.746;2023-04-03T10:41:31;5.40;;;4.90;;
2674;SDS011;1347;42.122;24.746;2023-04-03T10:44:10;4.77;;;4.30;;
2674;SDS011;1347;42.122;24.746;2023-04-03T10:46:43;5.07;;;4.63;;
2674;SDS011;1347;42.122;24.746;2023-04-03T10:49:19;7.13;;;5.30;;
2674;SDS011;1347;42.122;24.746;2023-04-03T10:51:58;5.43;;;5.00;;
2674;SDS011;1347;42.122;24.746;2023-04-03T10:54:34;7.23;;;5.00;;
2674;SDS011;1347;42.122;24.746;2023-04-03T10:57:05;4.97;;;4.47;;
2674;SDS011;1347;42.122;24.746;2023-04-03T10:59:35;7.10;;;5.20;;
2674;SDS011;1347;42.122;24.746;2023-04-03T11:02:06;4.97;;;4.53;;
2674;SDS011;1347;42.122;24.746;2023-04-03T11:04:41;8.63;;;5.27;;
2674;SDS011;1347;42.122;24.746;2023-04-03T11:07:12;5.07;;;4.53;;
2674;SDS011;1347;42.122;24.746;2023-04-03T11:09:46;7.00;;;5.43;;
2674;SDS011;1347;42.122;24.746;2023-04-03T11:12:17;5.93;;;5.33;;
2674;SDS011;1347;42.122;24.746;2023-04-03T11:14:48;6.07;;;5.40;;
2674;SDS011;1347;42.122;24.746;2023-04-03T11:17:26;8.50;;;7.63;;
2674;SDS011;1347;42.122;24.746;2023-04-03T11:20:01;8.50;;;7.03;;
2674;SDS011;1347;42.122;24.746;2023-04-03T11:22:35;7.60;;;6.67;;
2674;SDS011;1347;42.122;24.746;2023-04-03T11:25:08;8.13;;;6.27;;
2674;SDS011;1347;42.122;24.746;2023-04-03T11:27:47;8.07;;;6.10;;
2674;SDS011;1347;42.122;24.746;2023-04-03T11:30:18;5.70;;;5.20;;
2674;SDS011;1347;42.122;24.746;2023-04-03T11:33:05;6.27;;;5.70;;
2674;SDS011;1347;42.122;24.746;2023-04-03T11:35:57;5.80;;;5.20;;
2674;SDS011;1347;42.122;24.746;2023-04-03T11:38:28;6.73;;;5.87;;
2674;SDS011;1347;42.122;24.746;2023-04-03T11:41:01;9.10;;;6.23;;
2674;SDS011;1347;42.122;24.746;2023-04-03T11:43:29;4.97;;;4.57;;
2674;SDS011;1347;42.122;24.746;2023-04-03T11:45:58;4.57;;;4.17;;
2674;SDS011;1347;42.122;24.746;2023-04-03T11:48:42;5.00;;;4.50;;
2674;SDS011;1347;42.122;24.746;2023-04-03T12:03:30;6.53;;;5.43;;
2674;SDS011;1347;42.122;24.746;2023-04-03T12:09:24;10.00;;;5.30;;
2674;SDS011;1347;42.122;24.746;2023-04-03T12:11:56;6.03;;;5.43;;
2674;SDS011;1347;42.122;24.746;2023-04-03T12:14:25;8.57;;;6.38;;
2674;SDS011;1347;42.122;24.746;2023-04-03T12:16:55;7.00;;;6.30;;
2674;SDS011;1347;42.122;24.746;2023-04-03T12:19:29;7.63;;;6.83;;
2674;SDS011;1347;42.122;24.746;2023-04-03T12:22:14;7.70;;;6.50;;
2674;SDS011;1347;42.122;24.746;2023-04-03T12:24:46;9.33;;;6.90;;
2674;SDS011;1347;42.122;24.746;2023-04-03T12:27:26;7.33;;;6.63;;
2674;SDS011;1347;42.122;24.746;2023-04-03T12:32:51;11.13;;;7.77;;
2674;SDS011;1347;42.122;24.746;2023-04-03T12:35:40;10.50;;;8.27;;
2674;SDS011;1347;42.122;24.746;2023-04-03T12:41:23;9.50;;;6.90;;
2674;SDS011;1347;42.122;24.746;2023-04-03T12:44:06;8.40;;;7.43;;
2674;SDS011;1347;42.122;24.746;2023-04-03T12:46:46;10.43;;;7.20;;
2674;SDS011;1347;42.122;24.746;2023-04-03T12:49:20;16.60;;;8.40;;
2674;SDS011;1347;42.122;24.746;2023-04-03T12:51:59;8.53;;;7.73;;
2674;SDS011;1347;42.122;24.746;2023-04-03T12:54:27;9.93;;;8.93;;
2674;SDS011;1347;42.122;24.746;2023-04-03T12:57:11;12.43;;;8.53;;
2674;SDS011;1347;42.122;24.746;2023-04-03T12:59:41;15.40;;;10.43;;
2674;SDS011;1347;42.122;24.746;2023-04-03T13:02:15;20.40;;;15.67;;
2674;SDS011;1347;42.122;24.746;2023-04-03T13:04:48;19.10;;;14.53;;
2674;SDS011;1347;42.122;24.746;2023-04-03T13:07:20;20.50;;;14.00;;
2674;SDS011;1347;42.122;24.746;2023-04-03T13:10:00;16.37;;;10.50;;
2674;SDS011;1347;42.122;24.746;2023-04-03T13:12:29;12.17;;;9.90;;
2674;SDS011;1347;42.122;24.746;2023-04-03T13:14:58;17.30;;;10.97;;
2674;SDS011;1347;42.122;24.746;2023-04-03T13:17:27;13.93;;;11.63;;
2674;SDS011;1347;42.122;24.746;2023-04-03T13:19:54;11.73;;;9.57;;
2674;SDS011;1347;42.122;24.746;2023-04-03T13:22:24;11.43;;;9.67;;
2674;SDS011;1347;42.122;24.746;2023-04-03T13:24:55;12.73;;;9.87;;
2674;SDS011;1347;42.122;24.746;2023-04-03T13:27:26;21.17;;;11.13;;
2674;SDS011;1347;42.122;24.746;2023-04-03T13:29:54;12.13;;;10.93;;
2674;SDS011;1347;42.122;24.746;2023-04-03T13:32:27;12.63;;;10.77;;
2674;SDS011;1347;42.122;24.746;2023-04-03T13:34:56;14.93;;;12.70;;
2674;SDS011;1347;42.122;24.746;2023-04-03T13:37:24;14.30;;;11.97;;
2674;SDS011;1347;42.122;24.746;2023-04-03T13:39:57;15.30;;;13.23;;
2674;SDS011;1347;42.122;24.746;2023-04-03T13:42:27;14.00;;;12.67;;
2674;SDS011;1347;42.122;24.746;2023-04-03T13:45:16;15.80;;;14.10;;
2674;SDS011;1347;42.122;24.746;2023-04-03T13:47:46;18.13;;;15.43;;
2674;SDS011;1347;42.122;24.746;2023-04-03T13:50:16;17.37;;;15.50;;
2674;SDS011;1347;42.122;24.746;2023-04-03T13:52:45;15.53;;;13.97;;
2674;SDS011;1347;42.122;24.746;2023-04-03T13:55:20;42.77;;;33.83;;
2674;SDS011;1347;42.122;24.746;2023-04-03T13:57:54;34.60;;;25.77;;
2674;SDS011;1347;42.122;24.746;2023-04-03T14:00:32;29.47;;;23.40;;
2674;SDS011;1347;42.122;24.746;2023-04-03T14:03:03;20.40;;;16.20;;
2674;SDS011;1347;42.122;24.746;2023-04-03T14:05:39;21.10;;;17.40;;
2674;SDS011;1347;42.122;24.746;2023-04-03T14:08:06;17.67;;;15.90;;
2674;SDS011;1347;42.122;24.746;2023-04-03T14:10:35;19.13;;;14.80;;
2674;SDS011;1347;42.122;24.746;2023-04-03T14:13:02;18.13;;;15.87;;
2674;SDS011;1347;42.122;24.746;2023-04-03T14:15:31;20.07;;;16.67;;
2674;SDS011;1347;42.122;24.746;2023-04-03T14:17:58;17.73;;;15.93;;
2674;SDS011;1347;42.122;24.746;2023-04-03T14:20:26;21.23;;;18.87;;
2674;SDS011;1347;42.122;24.746;2023-04-03T14:22:53;22.60;;;18.63;;
2674;SDS011;1347;42.122;24.746;2023-04-03T14:25:21;21.00;;;17.60;;
2674;SDS011;1347;42.122;24.746;2023-04-03T14:27:51;20.87;;;18.67;;
2674;SDS011;1347;42.122;24.746;2023-04-03T14:30:20;19.60;;;17.50;;
2674;SDS011;1347;42.122;24.746;2023-04-03T14:32:50;24.70;;;19.80;;
2674;SDS011;1347;42.122;24.746;2023-04-03T14:35:18;21.53;;;19.23;;
2674;SDS011;1347;42.122;24.746;2023-04-03T14:37:45;20.97;;;18.80;;
2674;SDS011;1347;42.122;24.746;2023-04-03T14:40:13;21.67;;;19.37;;
2674;SDS011;1347;42.122;24.746;2023-04-03T14:42:43;22.07;;;19.00;;
2674;SDS011;1347;42.122;24.746;2023-04-03T14:45:12;21.33;;;18.90;;
2674;SDS011;1347;42.122;24.746;2023-04-03T14:47:41;19.53;;;17.47;;
2674;SDS011;1347;42.122;24.746;2023-04-03T14:50:16;22.97;;;18.73;;
2674;SDS011;1347;42.122;24.746;2023-04-03T14:52:46;18.90;;;15.90;;
2674;SDS011;1347;42.122;24.746;2023-04-03T14:55:14;18.33;;;16.47;;
2674;SDS011;1347;42.122;24.746;2023-04-03T14:57:41;18.00;;;16.10;;
2674;SDS011;1347;42.122;24.746;2023-04-03T15:00:11;16.73;;;15.10;;
2674;SDS011;1347;42.122;24.746;2023-04-03T15:02:41;17.07;;;15.23;;
2674;SDS011;1347;42.122;24.746;2023-04-03T15:05:09;20.97;;;18.77;;
2674;SDS011;1347;42.122;24.746;2023-04-03T15:07:39;21.70;;;16.50;;
2674;SDS011;1347;42.122;24.746;2023-04-03T15:10:18;16.97;;;15.37;;
2674;SDS011;1347;42.122;24.746;2023-04-03T15:12:46;18.07;;;16.17;;
2674;SDS011;1347;42.122;24.746;2023-04-03T15:15:16;18.50;;;16.57;;
2674;SDS011;1347;42.122;24.746;2023-04-03T15:17:44;20.53;;;18.40;;
2674;SDS011;1347;42.122;24.746;2023-04-03T15:20:14;35.17;;;31.47;;
2674;SDS011;1347;42.122;24.746;2023-04-03T15:22:44;33.87;;;30.30;;
2674;SDS011;1347;42.122;24.746;2023-04-03T15:25:11;32.03;;;24.67;;
2674;SDS011;1347;42.122;24.746;2023-04-03T15:27:38;25.43;;;22.83;;
2674;SDS011;1347;42.122;24.746;2023-04-03T15:30:06;25.03;;;22.20;;
2674;SDS011;1347;42.122;24.746;2023-04-03T15:32:35;25.57;;;21.83;;
2674;SDS011;1347;42.122;24.746;2023-04-03T15:35:02;21.30;;;19.10;;
2674;SDS011;1347;42.122;24.746;2023-04-03T15:37:29;23.47;;;17.03;;